Time;durP1;ratioP1;P1;durP2;ratioP2;P2;SDS_P1;SDS_P2;PMS_P1;PMS_P2;Temp;Humidity;BMP_temperature;BMP_pressure;BME280_temperature;BME280_humidity;BME280_pressure;Samples;Min_cycle;Max_cycle;Signal;HPM_P1;HPM_P2
2022/10/26 00:01:18;;;;;;;23.30;14.50;;;;;;;;;;5036846;28;20104;-73
2022/10/26 00:03:44;;;;;;;23.35;14.27;;;;;;;;;;5019157;28;20108;-72
2022/10/26 00:06:11;;;;;;;22.60;14.98;;;;;;;;;;5036751;28;20037;-73
2022/10/26 00:08:36;;;;;;;21.58;14.10;;;;;;;;;;5036741;28;20022;-71
2022/10/26 00:11:02;;;;;;;22.08;15.23;;;;;;;;;;5036669;28;20091;-73
2022/10/26 00:13:27;;;;;;;23.73;15.50;;;;;;;;;;5036464;28;20033;-72
2022/10/26 00:15:53;;;;;;;24.15;15.60;;;;;;;;;;5018976;28;20481;-72
2022/10/26 00:18:18;;;;;;;25.02;15.75;;;;;;;;;;5036632;28;20009;-73
2022/10/26 00:20:44;;;;;;;23.27;14.65;;;;;;;;;;5036484;28;20465;-72
2022/10/26 00:23:09;;;;;;;27.52;16.45;;;;;;;;;;5018580;28;20388;-72
2022/10/26 00:25:34;;;;;;;28.73;15.52;;;;;;;;;;5036495;28;20112;-73
2022/10/26 00:28:00;;;;;;;21.00;14.70;;;;;;;;;;5036428;28;20030;-74
2022/10/26 00:30:25;;;;;;;24.42;15.70;;;;;;;;;;5002178;28;20029;-73
2022/10/26 00:32:50;;;;;;;21.00;14.98;;;;;;;;;;5036152;28;20017;-73
2022/10/26 00:35:16;;;;;;;21.02;15.00;;;;;;;;;;5036119;28;20025;-72
2022/10/26 00:37:42;;;;;;;21.50;15.40;;;;;;;;;;5018422;28;20473;-72
2022/10/26 00:40:08;;;;;;;19.70;14.98;;;;;;;;;;5036068;28;20026;-72
2022/10/26 00:42:33;;;;;;;18.00;14.55;;;;;;;;;;5018242;28;20463;-72
2022/10/26 00:45:00;;;;;;;17.88;13.95;;;;;;;;;;5036075;28;20033;-72
2022/10/26 00:47:55;;;;;;;20.77;14.63;;;;;;;;;;5035714;28;20401;-72
2022/10/26 00:50:27;;;;;;;20.00;15.00;;;;;;;;;;5005733;28;20045;-72
2022/10/26 00:52:53;;;;;;;17.48;13.93;;;;;;;;;;5035879;28;20045;-72
2022/10/26 00:55:21;;;;;;;19.38;14.38;;;;;;;;;;5035804;28;20151;-71
2022/10/26 00:57:48;;;;;;;18.60;14.27;;;;;;;;;;5018112;28;20026;-72
2022/10/26 01:00:13;;;;;;;18.15;13.68;;;;;;;;;;5035720;28;20018;-71
2022/10/26 01:02:39;;;;;;;19.67;14.80;;;;;;;;;;5035637;28;20496;-71
2022/10/26 01:05:05;;;;;;;17.90;14.50;;;;;;;;;;5035666;28;20033;-71
2022/10/26 01:07:30;;;;;;;18.45;13.90;;;;;;;;;;5050891;28;20039;-71
2022/10/26 01:09:56;;;;;;;16.83;14.20;;;;;;;;;;5034676;28;20104;-71
2022/10/26 01:12:21;;;;;;;13.45;11.32;;;;;;;;;;5035419;28;20079;-71
2022/10/26 01:14:46;;;;;;;13.73;11.57;;;;;;;;;;5017877;28;20021;-72
2022/10/26 01:17:19;;;;;;;12.38;10.68;;;;;;;;;;5035433;28;20057;-73
2022/10/26 01:19:52;;;;;;;11.50;10.25;;;;;;;;;;5017522;28;20034;-73
2022/10/26 01:22:28;;;;;;;14.80;11.82;;;;;;;;;;5050646;28;20032;-71
2022/10/26 01:24:53;;;;;;;13.23;10.15;;;;;;;;;;5035484;28;20025;-72
2022/10/26 01:27:22;;;;;;;13.82;10.40;;;;;;;;;;5035171;28;20076;-73
2022/10/26 01:30:06;;;;;;;14.50;11.98;;;;;;;;;;5035106;28;20397;-73
2022/10/26 01:32:34;;;;;;;17.63;13.23;;;;;;;;;;5035108;28;20035;-72
2022/10/26 01:34:59;;;;;;;16.98;13.43;;;;;;;;;;5017707;28;20010;-71
2022/10/26 01:37:27;;;;;;;13.52;11.43;;;;;;;;;;5034894;28;20029;-72
2022/10/26 01:39:55;;;;;;;13.30;11.25;;;;;;;;;;5034885;28;20029;-73
2022/10/26 01:42:22;;;;;;;14.95;11.52;;;;;;;;;;5034833;28;20033;-72
2022/10/26 01:44:50;;;;;;;14.23;11.45;;;;;;;;;;5034822;28;20378;-73
2022/10/26 01:47:17;;;;;;;14.98;11.68;;;;;;;;;;5034683;28;20033;-71
2022/10/26 01:49:51;;;;;;;13.40;11.07;;;;;;;;;;5034796;28;20033;-71
2022/10/26 01:52:17;;;;;;;13.93;10.95;;;;;;;;;;5034770;28;20061;-72
2022/10/26 01:54:42;;;;;;;12.93;11.15;;;;;;;;;;5034639;28;20127;-71
2022/10/26 01:57:09;;;;;;;12.02;10.73;;;;;;;;;;5034581;28;20033;-73
2022/10/26 01:59:53;;;;;;;11.40;10.10;;;;;;;;;;5034516;28;20457;-72
2022/10/26 02:02:30;;;;;;;12.65;10.35;;;;;;;;;;5034482;28;20025;-72
2022/10/26 02:05:07;;;;;;;10.65;9.38;;;;;;;;;;5034582;28;20029;-72
2022/10/26 02:07:38;;;;;;;11.77;10.13;;;;;;;;;;5033152;28;20420;-72
2022/10/26 02:10:04;;;;;;;11.15;9.48;;;;;;;;;;5034409;28;20041;-72
2022/10/26 02:12:29;;;;;;;11.00;9.27;;;;;;;;;;5016508;28;20021;-72
2022/10/26 02:14:59;;;;;;;12.30;10.10;;;;;;;;;;5034579;28;20107;-72
2022/10/26 02:17:29;;;;;;;17.30;11.75;;;;;;;;;;5034263;28;20025;-73
2022/10/26 02:19:57;;;;;;;13.77;10.60;;;;;;;;;;5049549;28;20496;-71
2022/10/26 02:22:27;;;;;;;15.18;10.32;;;;;;;;;;5034035;28;20022;-70
2022/10/26 02:24:55;;;;;;;12.93;10.27;;;;;;;;;;5034079;28;20027;-72
2022/10/26 02:27:22;;;;;;;12.10;9.65;;;;;;;;;;5034080;28;20020;-71
2022/10/26 02:29:49;;;;;;;12.68;9.82;;;;;;;;;;5034033;28;20040;-71
2022/10/26 02:32:16;;;;;;;10.80;9.70;;;;;;;;;;5033933;28;20025;-70
2022/10/26 02:34:43;;;;;;;15.15;11.27;;;;;;;;;;5033948;28;20034;-71
2022/10/26 02:37:09;;;;;;;14.65;11.82;;;;;;;;;;5033952;28;20101;-71
2022/10/26 02:39:36;;;;;;;14.13;11.43;;;;;;;;;;5033934;28;20420;-71
2022/10/26 02:42:03;;;;;;;13.40;10.55;;;;;;;;;;5033921;28;20071;-71
2022/10/26 02:44:36;;;;;;;17.08;13.20;;;;;;;;;;5033895;28;20048;-71
2022/10/26 02:47:01;;;;;;;178.88;96.68;;;;;;;;;;5015944;28;20124;-73
2022/10/26 02:49:27;;;;;;;48.15;29.40;;;;;;;;;;5016003;28;20068;-72
2022/10/26 02:52:13;;;;;;;22.80;15.55;;;;;;;;;;5033818;28;20069;-72
2022/10/26 02:54:43;;;;;;;15.82;12.20;;;;;;;;;;5015264;28;20127;-72
2022/10/26 02:57:22;;;;;;;16.30;11.55;;;;;;;;;;5033659;28;20068;-72
2022/10/26 02:59:48;;;;;;;15.10;11.40;;;;;;;;;;5033707;28;20128;-72
2022/10/26 03:02:15;;;;;;;15.07;11.40;;;;;;;;;;5033578;28;20523;-71
2022/10/26 03:04:40;;;;;;;17.05;11.55;;;;;;;;;;5033772;28;20053;-71
2022/10/26 03:07:06;;;;;;;13.00;10.38;;;;;;;;;;5033516;28;20060;-71
2022/10/26 03:09:31;;;;;;;17.35;12.18;;;;;;;;;;5033458;28;20467;-71
2022/10/26 03:11:57;;;;;;;28.35;16.55;;;;;;;;;;5015865;28;20017;-72
2022/10/26 03:14:22;;;;;;;27.23;15.27;;;;;;;;;;5033394;28;20033;-73
2022/10/26 03:16:47;;;;;;;17.75;12.73;;;;;;;;;;5033411;28;20018;-72
2022/10/26 03:19:13;;;;;;;22.83;14.50;;;;;;;;;;5033492;28;20057;-73
2022/10/26 03:21:38;;;;;;;20.05;13.82;;;;;;;;;;5033394;28;20480;-73
2022/10/26 03:24:04;;;;;;;16.08;11.98;;;;;;;;;;5048639;28;20072;-74
2022/10/26 03:26:29;;;;;;;17.13;12.15;;;;;;;;;;5033374;28;20028;-75
2022/10/26 03:28:54;;;;;;;15.38;11.07;;;;;;;;;;5015591;28;20034;-73
2022/10/26 03:31:20;;;;;;;16.45;11.57;;;;;;;;;;5032981;28;20026;-73
2022/10/26 03:33:45;;;;;;;15.13;11.02;;;;;;;;;;5035148;28;20474;-72
2022/10/26 03:36:10;;;;;;;16.52;10.52;;;;;;;;;;5037271;28;20048;-71
2022/10/26 03:38:36;;;;;;;15.57;10.82;;;;;;;;;;5037425;28;20373;-72
2022/10/26 03:41:02;;;;;;;13.48;10.10;;;;;;;;;;5037005;28;20033;-72
2022/10/26 03:43:27;;;;;;;15.95;10.43;;;;;;;;;;5019263;28;20033;-73
2022/10/26 03:45:53;;;;;;;10.52;8.80;;;;;;;;;;5037070;28;20029;-73
2022/10/26 03:48:19;;;;;;;10.88;8.77;;;;;;;;;;5036957;28;20076;-73
2022/10/26 03:50:44;;;;;;;10.38;9.30;;;;;;;;;;5037409;28;20056;-71
2022/10/26 03:53:10;;;;;;;11.05;9.60;;;;;;;;;;5036961;28;20065;-72
2022/10/26 03:55:35;;;;;;;11.68;10.18;;;;;;;;;;5037379;28;20025;-72
2022/10/26 03:58:01;;;;;;;11.35;9.75;;;;;;;;;;5037020;28;20033;-72
2022/10/26 04:00:26;;;;;;;13.68;9.70;;;;;;;;;;5037414;28;20071;-72
2022/10/26 04:02:55;;;;;;;13.68;10.15;;;;;;;;;;5036503;28;20040;-73
2022/10/26 04:05:21;;;;;;;15.73;11.20;;;;;;;;;;5037075;28;20032;-73
2022/10/26 04:07:52;;;;;;;10.95;9.68;;;;;;;;;;5036596;28;20029;-73
2022/10/26 04:10:18;;;;;;;12.05;9.77;;;;;;;;;;5036657;28;20484;-71
2022/10/26 04:12:43;;;;;;;13.38;10.82;;;;;;;;;;5035789;28;20057;-71
2022/10/26 04:15:09;;;;;;;14.75;10.48;;;;;;;;;;5052147;28;20589;-72
2022/10/26 04:17:35;;;;;;;13.23;10.75;;;;;;;;;;5036876;28;20021;-73
2022/10/26 04:20:01;;;;;;;13.60;11.18;;;;;;;;;;5036710;28;20022;-72
2022/10/26 04:22:26;;;;;;;15.75;12.20;;;;;;;;;;5019183;28;20018;-74
2022/10/26 04:24:51;;;;;;;15.88;11.05;;;;;;;;;;5018873;28;20021;-72
2022/10/26 04:27:17;;;;;;;14.05;11.25;;;;;;;;;;5036757;28;20021;-72
2022/10/26 04:29:42;;;;;;;11.68;10.30;;;;;;;;;;5001767;28;20041;-73
2022/10/26 04:32:07;;;;;;;13.23;10.48;;;;;;;;;;5035377;28;20040;-73
2022/10/26 04:34:33;;;;;;;15.35;10.70;;;;;;;;;;5016918;28;20034;-73
2022/10/26 04:36:58;;;;;;;13.35;10.60;;;;;;;;;;5016217;28;20013;-73
2022/10/26 04:39:24;;;;;;;13.57;11.23;;;;;;;;;;5015426;28;20029;-73
2022/10/26 04:41:49;;;;;;;12.73;10.60;;;;;;;;;;5032892;28;20061;-73
2022/10/26 04:44:15;;;;;;;12.75;10.75;;;;;;;;;;5031893;28;20025;-72
2022/10/26 04:46:40;;;;;;;15.88;12.10;;;;;;;;;;5032484;28;20143;-72
2022/10/26 04:49:06;;;;;;;22.13;17.33;;;;;;;;;;5015383;28;20044;-72
2022/10/26 04:51:31;;;;;;;16.85;13.13;;;;;;;;;;5033112;28;20037;-71
2022/10/26 04:53:57;;;;;;;15.32;11.90;;;;;;;;;;5034282;28;20044;-73
2022/10/26 04:56:22;;;;;;;13.95;11.60;;;;;;;;;;5034351;28;20021;-73
2022/10/26 04:58:48;;;;;;;13.60;11.27;;;;;;;;;;5034653;28;20076;-73
2022/10/26 05:01:13;;;;;;;16.95;12.43;;;;;;;;;;5034486;28;20022;-72
2022/10/26 05:03:38;;;;;;;27.98;17.40;;;;;;;;;;5033826;28;20029;-73
2022/10/26 05:06:04;;;;;;;37.38;25.00;;;;;;;;;;5033934;28;20068;-72
2022/10/26 05:08:29;;;;;;;40.08;25.65;;;;;;;;;;5034447;28;20025;-72
2022/10/26 05:10:55;;;;;;;45.28;29.70;;;;;;;;;;5034381;28;20536;-72
2022/10/26 05:13:20;;;;;;;58.00;34.60;;;;;;;;;;5016539;28;20116;-72
2022/10/26 05:15:45;;;;;;;51.85;29.48;;;;;;;;;;5034282;28;20017;-73
2022/10/26 05:18:11;;;;;;;38.13;20.60;;;;;;;;;;5033378;28;20478;-72
2022/10/26 05:20:36;;;;;;;40.35;20.42;;;;;;;;;;5034163;28;20024;-72
2022/10/26 05:23:03;;;;;;;31.33;17.95;;;;;;;;;;5033896;28;20036;-71
2022/10/26 05:25:29;;;;;;;24.23;15.43;;;;;;;;;;5034111;28;20030;-72
2022/10/26 05:27:59;;;;;;;13.90;11.07;;;;;;;;;;5034028;28;20029;-73
2022/10/26 05:30:24;;;;;;;12.77;10.52;;;;;;;;;;5034114;28;20017;-73
2022/10/26 05:32:54;;;;;;;11.95;10.05;;;;;;;;;;5035278;28;20351;-74
2022/10/26 05:35:19;;;;;;;10.87;9.47;;;;;;;;;;5035654;28;20041;-72
2022/10/26 05:37:44;;;;;;;13.75;10.02;;;;;;;;;;5035429;28;20018;-74
2022/10/26 05:40:10;;;;;;;13.38;10.32;;;;;;;;;;5016971;28;20026;-74
2022/10/26 05:42:35;;;;;;;13.57;10.40;;;;;;;;;;5034575;28;20096;-72
2022/10/26 05:45:01;;;;;;;13.68;10.82;;;;;;;;;;5034813;28;20021;-73
2022/10/26 05:47:26;;;;;;;12.25;10.85;;;;;;;;;;5034308;28;20052;-73
2022/10/26 05:49:52;;;;;;;15.27;11.40;;;;;;;;;;5034301;28;20051;-73
2022/10/26 05:52:17;;;;;;;14.77;11.65;;;;;;;;;;5034350;28;20028;-73
2022/10/26 05:54:42;;;;;;;19.60;12.77;;;;;;;;;;5034504;28;20073;-74
2022/10/26 05:57:11;;;;;;;25.50;17.63;;;;;;;;;;5034228;28;20024;-72
2022/10/26 05:59:37;;;;;;;24.13;18.50;;;;;;;;;;5034572;28;20022;-72
2022/10/26 06:02:08;;;;;;;18.85;14.48;;;;;;;;;;5034548;28;20045;-72
2022/10/26 06:04:46;;;;;;;20.40;14.30;;;;;;;;;;5034487;28;20029;-72
2022/10/26 06:07:21;;;;;;;19.50;14.25;;;;;;;;;;5034447;28;20036;-72
2022/10/26 06:09:47;;;;;;;19.38;13.27;;;;;;;;;;5016842;28;20039;-73
2022/10/26 06:12:12;;;;;;;30.92;21.08;;;;;;;;;;5016766;28;20031;-73
2022/10/26 06:14:38;;;;;;;23.20;15.93;;;;;;;;;;5034295;28;20060;-72
2022/10/26 06:17:10;;;;;;;22.52;16.15;;;;;;;;;;5016716;28;20018;-73
2022/10/26 06:19:39;;;;;;;26.00;17.13;;;;;;;;;;5034277;28;20036;-73
2022/10/26 06:22:15;;;;;;;20.92;15.73;;;;;;;;;;5016564;28;20024;-72
2022/10/26 06:24:41;;;;;;;20.60;14.57;;;;;;;;;;5049926;28;20033;-74
2022/10/26 06:27:09;;;;;;;21.45;16.42;;;;;;;;;;5034174;28;20036;-74
2022/10/26 06:29:56;;;;;;;20.98;15.15;;;;;;;;;;5034089;28;20038;-72
2022/10/26 06:32:23;;;;;;;21.48;15.13;;;;;;;;;;5034042;28;20040;-74
2022/10/26 06:34:49;;;;;;;18.90;14.52;;;;;;;;;;5034049;28;20014;-73
2022/10/26 06:37:15;;;;;;;21.17;14.18;;;;;;;;;;5033862;28;20488;-73
2022/10/26 06:39:43;;;;;;;22.23;14.13;;;;;;;;;;5033906;28;20017;-73
2022/10/26 06:42:09;;;;;;;19.67;14.30;;;;;;;;;;5034052;28;20017;-74
2022/10/26 06:44:35;;;;;;;21.10;13.88;;;;;;;;;;5033932;28;20091;-74
2022/10/26 06:47:21;;;;;;;22.75;14.15;;;;;;;;;;5015891;28;20045;-74
2022/10/26 06:49:49;;;;;;;20.25;13.82;;;;;;;;;;5033966;28;20071;-74
2022/10/26 06:52:19;;;;;;;18.58;13.18;;;;;;;;;;5033878;28;20033;-73
2022/10/26 06:54:52;;;;;;;18.65;13.77;;;;;;;;;;5033561;28;20029;-74
2022/10/26 06:57:21;;;;;;;21.48;14.10;;;;;;;;;;5033620;28;20025;-75
2022/10/26 06:59:51;;;;;;;20.35;14.15;;;;;;;;;;5033722;28;20021;-72
2022/10/26 07:02:17;;;;;;;20.08;14.25;;;;;;;;;;5033715;28;20030;-73
2022/10/26 07:04:43;;;;;;;21.45;14.57;;;;;;;;;;5016117;28;20377;-73
2022/10/26 07:07:10;;;;;;;23.17;15.20;;;;;;;;;;5015648;28;20488;-72
2022/10/26 07:09:35;;;;;;;26.73;19.27;;;;;;;;;;5033135;28;20121;-74
2022/10/26 07:12:01;;;;;;;50.42;36.20;;;;;;;;;;5033456;28;20108;-72
2022/10/26 07:14:26;;;;;;;69.25;48.13;;;;;;;;;;5033501;28;20101;-72
2022/10/26 07:16:53;;;;;;;87.47;57.33;;;;;;;;;;5033482;28;20535;-73
2022/10/26 07:19:18;;;;;;;55.15;39.03;;;;;;;;;;5033397;28;20445;-74
2022/10/26 07:21:44;;;;;;;23.25;17.48;;;;;;;;;;5033406;28;20021;-72
2022/10/26 07:24:09;;;;;;;21.95;15.70;;;;;;;;;;5033440;28;20076;-73
2022/10/26 07:26:34;;;;;;;20.67;15.00;;;;;;;;;;5033357;28;20061;-72
2022/10/26 07:29:00;;;;;;;21.63;15.40;;;;;;;;;;5033341;28;20025;-75
2022/10/26 07:31:25;;;;;;;23.25;15.55;;;;;;;;;;5033378;28;20477;-72
2022/10/26 07:33:52;;;;;;;23.15;15.63;;;;;;;;;;5033319;28;20122;-72
2022/10/26 07:36:17;;;;;;;23.40;15.27;;;;;;;;;;5033361;28;20022;-74
2022/10/26 07:38:42;;;;;;;21.05;15.20;;;;;;;;;;5033282;28;20385;-74
2022/10/26 07:41:08;;;;;;;20.35;15.23;;;;;;;;;;5015519;28;20033;-73
2022/10/26 07:43:33;;;;;;;21.27;15.07;;;;;;;;;;5015589;28;20021;-73
2022/10/26 07:45:58;;;;;;;20.10;15.15;;;;;;;;;;5033213;28;20079;-73
2022/10/26 07:48:24;;;;;;;18.85;14.18;;;;;;;;;;5032976;28;20468;-72
2022/10/26 07:50:49;;;;;;;21.38;14.13;;;;;;;;;;5015618;28;20033;-72
2022/10/26 07:53:15;;;;;;;24.40;14.98;;;;;;;;;;5033096;28;20025;-73
2022/10/26 07:55:40;;;;;;;22.48;13.90;;;;;;;;;;5033192;28;20026;-72
2022/10/26 07:58:05;;;;;;;21.17;14.18;;;;;;;;;;5015503;28;20423;-72
2022/10/26 08:00:31;;;;;;;22.60;13.07;;;;;;;;;;5015494;28;20428;-74
2022/10/26 08:02:56;;;;;;;17.88;11.07;;;;;;;;;;5033027;28;20032;-73
2022/10/26 08:05:22;;;;;;;19.25;10.40;;;;;;;;;;5032995;28;20518;-72
2022/10/26 08:07:47;;;;;;;17.67;10.77;;;;;;;;;;5032929;28;20029;-72
2022/10/26 08:10:13;;;;;;;16.38;9.90;;;;;;;;;;5015183;28;20092;-73
2022/10/26 08:12:39;;;;;;;16.27;10.70;;;;;;;;;;5048219;28;20026;-74
2022/10/26 08:15:06;;;;;;;16.25;10.73;;;;;;;;;;5032895;28;20021;-73
2022/10/26 08:17:31;;;;;;;16.48;10.10;;;;;;;;;;5015206;28;20104;-73
2022/10/26 08:19:57;;;;;;;16.77;11.52;;;;;;;;;;5034888;28;20147;-73
2022/10/26 08:22:22;;;;;;;16.58;10.07;;;;;;;;;;5036428;28;20401;-73
2022/10/26 08:24:47;;;;;;;19.38;10.57;;;;;;;;;;5018605;28;20100;-72
2022/10/26 08:27:13;;;;;;;16.80;11.35;;;;;;;;;;5036400;28;20021;-73
2022/10/26 08:29:39;;;;;;;17.45;11.45;;;;;;;;;;5018688;28;20040;-73
2022/10/26 08:32:05;;;;;;;16.08;9.88;;;;;;;;;;5018667;28;20021;-73
2022/10/26 08:34:30;;;;;;;15.48;9.52;;;;;;;;;;5018527;28;20040;-72
2022/10/26 08:36:55;;;;;;;16.83;10.68;;;;;;;;;;5018627;28;20068;-72
2022/10/26 08:39:21;;;;;;;14.27;10.13;;;;;;;;;;5036109;28;20029;-72
2022/10/26 08:41:52;;;;;;;14.10;10.60;;;;;;;;;;5001978;28;20130;-73
2022/10/26 08:44:17;;;;;;;;;;;;;;;;;;5036468;28;20033;-73
2022/10/26 08:46:45;;;;;;;11.77;9.03;;;;;;;;;;5035859;28;20383;-73
2022/10/26 08:49:31;;;;;;;10.25;7.25;;;;;;;;;;5018269;28;20276;-73
2022/10/26 08:51:59;;;;;;;13.13;8.65;;;;;;;;;;5035317;28;20042;-74
2022/10/26 08:54:29;;;;;;;13.05;9.00;;;;;;;;;;5035720;28;20026;-73
2022/10/26 08:56:57;;;;;;;9.40;6.72;;;;;;;;;;5018167;28;20045;-72
2022/10/26 08:59:24;;;;;;;13.57;9.13;;;;;;;;;;5035721;28;20071;-72
2022/10/26 09:01:49;;;;;;;11.75;8.55;;;;;;;;;;5035692;28;20021;-72
2022/10/26 09:04:15;;;;;;;9.45;7.75;;;;;;;;;;5035701;28;20020;-73
2022/10/26 09:06:40;;;;;;;10.73;8.00;;;;;;;;;;5017787;28;20104;-74
2022/10/26 09:09:08;;;;;;;12.87;9.13;;;;;;;;;;5035657;28;20041;-75
2022/10/26 09:11:37;;;;;;;14.23;8.75;;;;;;;;;;5035639;28;20282;-72
2022/10/26 09:14:08;;;;;;;10.45;8.27;;;;;;;;;;5035808;28;20104;-73
2022/10/26 09:16:45;;;;;;;10.68;9.50;;;;;;;;;;5035404;28;20029;-73
2022/10/26 09:19:32;;;;;;;9.38;7.15;;;;;;;;;;5035528;28;20025;-74
2022/10/26 09:21:57;;;;;;;9.70;6.35;;;;;;;;;;5017971;28;20026;-73
2022/10/26 09:24:34;;;;;;;12.32;6.63;;;;;;;;;;5035382;28;20469;-72
2022/10/26 09:27:09;;;;;;;12.35;7.28;;;;;;;;;;5017678;28;20042;-72
2022/10/26 09:29:40;;;;;;;10.15;7.07;;;;;;;;;;5035278;28;20470;-74
2022/10/26 09:32:09;;;;;;;10.38;7.70;;;;;;;;;;5034448;28;20036;-72
2022/10/26 09:34:44;;;;;;;10.23;7.55;;;;;;;;;;5035118;28;20022;-74
2022/10/26 09:37:22;;;;;;;10.23;7.20;;;;;;;;;;5035153;28;20040;-73
2022/10/26 09:40:06;;;;;;;11.05;6.43;;;;;;;;;;5017468;28;20035;-72
2022/10/26 09:42:41;;;;;;;9.85;7.43;;;;;;;;;;5017351;28;20079;-72
2022/10/26 09:45:28;;;;;;;13.93;8.50;;;;;;;;;;5034819;28;20030;-74
2022/10/26 09:47:57;;;;;;;9.63;7.80;;;;;;;;;;5034559;28;20080;-74
2022/10/26 09:50:22;;;;;;;9.30;7.13;;;;;;;;;;5034823;28;20044;-74
2022/10/26 09:52:48;;;;;;;8.50;6.50;;;;;;;;;;5034652;28;20033;-73
2022/10/26 09:55:13;;;;;;;11.07;6.38;;;;;;;;;;5034645;28;20024;-74
2022/10/26 09:57:40;;;;;;;9.05;6.30;;;;;;;;;;5034595;28;20029;-73
2022/10/26 10:00:10;;;;;;;8.07;5.97;;;;;;;;;;5034617;28;20021;-72
2022/10/26 10:02:43;;;;;;;7.75;5.30;;;;;;;;;;5034551;28;20032;-72
2022/10/26 10:05:26;;;;;;;8.75;6.30;;;;;;;;;;5050233;28;20105;-72
2022/10/26 10:08:07;;;;;;;8.23;5.18;;;;;;;;;;5034525;28;20021;-74
2022/10/26 10:10:32;;;;;;;7.57;5.47;;;;;;;;;;5016710;28;20469;-72
2022/10/26 10:13:13;;;;;;;7.80;5.68;;;;;;;;;;5034384;28;20021;-72
2022/10/26 10:15:38;;;;;;;9.07;5.65;;;;;;;;;;5034083;28;20086;-74
2022/10/26 10:18:03;;;;;;;6.13;4.35;;;;;;;;;;5034099;28;20108;-73
2022/10/26 10:20:32;;;;;;;4.90;4.30;;;;;;;;;;5016992;28;20067;-73
2022/10/26 10:23:02;;;;;;;8.40;5.18;;;;;;;;;;5034263;28;20037;-74
2022/10/26 10:25:32;;;;;;;5.97;5.13;;;;;;;;;;5034176;28;20409;-73
2022/10/26 10:27:58;;;;;;;6.05;4.53;;;;;;;;;;5016575;28;20272;-74
2022/10/26 10:30:32;;;;;;;7.30;4.63;;;;;;;;;;5034204;28;20081;-73
2022/10/26 10:33:10;;;;;;;6.75;4.30;;;;;;;;;;5016159;28;20374;-73
2022/10/26 10:35:37;;;;;;;5.60;4.50;;;;;;;;;;5034072;28;20476;-73
2022/10/26 10:38:02;;;;;;;4.43;3.83;;;;;;;;;;5016250;28;20396;-73
2022/10/26 10:40:30;;;;;;;6.03;3.58;;;;;;;;;;5034086;28;20026;-73
2022/10/26 10:43:12;;;;;;;4.80;3.33;;;;;;;;;;5016196;28;20060;-73
2022/10/26 10:45:37;;;;;;;4.97;3.58;;;;;;;;;;5033841;28;20037;-75
2022/10/26 10:48:04;;;;;;;7.05;4.32;;;;;;;;;;5033623;28;20053;-72
2022/10/26 10:50:31;;;;;;;6.60;4.07;;;;;;;;;;5033786;28;20488;-72
2022/10/26 10:53:34;;;;;;;5.32;4.43;;;;;;;;;;5033737;28;20033;-74
2022/10/26 10:56:06;;;;;;;6.60;3.85;;;;;;;;;;4953753;29;20122;-73
2022/10/26 10:58:37;;;;;;;4.68;3.22;;;;;;;;;;4953610;29;20027;-74
2022/10/26 11:01:03;;;;;;;8.63;3.90;;;;;;;;;;4997007;28;20421;-72
2022/10/26 11:03:31;;;;;;;4.47;3.72;;;;;;;;;;5033561;28;20048;-73
2022/10/26 11:06:05;;;;;;;5.78;3.33;;;;;;;;;;5015852;28;20029;-72
2022/10/26 11:08:37;;;;;;;6.93;2.85;;;;;;;;;;5033665;28;20469;-73
2022/10/26 11:11:15;;;;;;;4.05;2.83;;;;;;;;;;5016408;28;20037;-73
2022/10/26 11:13:44;;;;;;;8.27;3.47;;;;;;;;;;5033540;28;20445;-73
2022/10/26 11:16:12;;;;;;;3.58;3.10;;;;;;;;;;5048816;28;20014;-73
2022/10/26 11:18:43;;;;;;;3.80;3.10;;;;;;;;;;5015682;28;20476;-72
2022/10/26 11:21:27;;;;;;;5.43;3.30;;;;;;;;;;5033410;28;20022;-72
2022/10/26 11:23:56;;;;;;;2.45;2.15;;;;;;;;;;5033188;28;20033;-74
2022/10/26 11:26:31;;;;;;;2.83;2.10;;;;;;;;;;5033398;28;20025;-74
2022/10/26 11:29:26;;;;;;;2.63;2.35;;;;;;;;;;5033142;28;20034;-73
2022/10/26 11:31:56;;;;;;;2.50;2.20;;;;;;;;;;5015968;28;20041;-74
2022/10/26 11:34:40;;;;;;;3.60;2.47;;;;;;;;;;5014362;28;20038;-74
2022/10/26 11:37:15;;;;;;;2.30;2.10;;;;;;;;;;5032477;28;20068;-74
2022/10/26 11:39:45;;;;;;;2.63;2.42;;;;;;;;;;5014759;28;20377;-72
2022/10/26 11:42:18;;;;;;;5.13;2.55;;;;;;;;;;5014282;28;20032;-72
2022/10/26 11:44:48;;;;;;;3.10;2.58;;;;;;;;;;5031905;28;20075;-73
2022/10/26 11:47:15;;;;;;;5.28;2.45;;;;;;;;;;5031702;28;20054;-73
2022/10/26 11:50:05;;;;;;;3.45;2.85;;;;;;;;;;5031772;28;20120;-72
2022/10/26 11:52:43;;;;;;;2.55;2.35;;;;;;;;;;5021987;28;20115;-72
2022/10/26 11:55:09;;;;;;;4.40;2.72;;;;;;;;;;5034040;28;20040;-72
2022/10/26 11:57:35;;;;;;;5.18;2.95;;;;;;;;;;5035786;28;20101;-71
2022/10/26 12:00:04;;;;;;;3.97;2.90;;;;;;;;;;5035761;28;20022;-71
2022/10/26 12:02:31;;;;;;;4.78;2.63;;;;;;;;;;5036027;28;20029;-71
2022/10/26 12:05:04;;;;;;;4.28;2.55;;;;;;;;;;5035759;28;20477;-73
2022/10/26 12:07:31;;;;;;;4.55;2.30;;;;;;;;;;5035567;28;20030;-72
2022/10/26 12:09:59;;;;;;;4.38;2.60;;;;;;;;;;5036478;28;20021;-72
2022/10/26 12:12:34;;;;;;;5.78;2.70;;;;;;;;;;5036638;28;20033;-73
2022/10/26 12:15:20;;;;;;;5.47;2.55;;;;;;;;;;5018741;28;20428;-72
2022/10/26 12:17:50;;;;;;;4.35;2.45;;;;;;;;;;5036157;28;20037;-73
2022/10/26 12:20:34;;;;;;;3.45;2.47;;;;;;;;;;5036521;28;20531;-73
2022/10/26 12:22:59;;;;;;;3.78;2.90;;;;;;;;;;5036563;28;20083;-74
2022/10/26 12:25:27;;;;;;;5.35;2.97;;;;;;;;;;5018766;28;20021;-74
2022/10/26 12:27:55;;;;;;;5.32;2.88;;;;;;;;;;5018679;28;20041;-73
2022/10/26 12:30:20;;;;;;;3.42;2.28;;;;;;;;;;5034286;28;20029;-73
2022/10/26 12:32:47;;;;;;;3.72;2.30;;;;;;;;;;5034333;28;20033;-73
2022/10/26 12:35:32;;;;;;;4.40;2.35;;;;;;;;;;5034211;28;20381;-72
2022/10/26 12:37:58;;;;;;;5.65;2.75;;;;;;;;;;5034191;28;20060;-72
2022/10/26 12:40:29;;;;;;;3.92;2.38;;;;;;;;;;5034290;28;20025;-73
2022/10/26 12:42:55;;;;;;;4.10;2.28;;;;;;;;;;5034267;28;20026;-71
2022/10/26 12:45:21;;;;;;;4.13;2.35;;;;;;;;;;5049633;28;20021;-73
2022/10/26 12:47:46;;;;;;;5.03;2.50;;;;;;;;;;5034676;28;20512;-73
2022/10/26 12:50:12;;;;;;;7.35;2.65;;;;;;;;;;5018365;28;20485;-74
2022/10/26 12:52:39;;;;;;;4.13;2.30;;;;;;;;;;5018028;28;20096;-73
2022/10/26 12:55:11;;;;;;;3.80;2.42;;;;;;;;;;5035867;28;20021;-73
2022/10/26 12:57:42;;;;;;;3.42;2.10;;;;;;;;;;5018216;28;20029;-74
2022/10/26 13:00:16;;;;;;;4.53;2.53;;;;;;;;;;5017985;28;20029;-74
2022/10/26 13:02:44;;;;;;;4.03;2.53;;;;;;;;;;5035727;28;20017;-74
2022/10/26 13:05:33;;;;;;;4.72;2.45;;;;;;;;;;5035077;28;20061;-73
2022/10/26 13:08:02;;;;;;;5.40;2.22;;;;;;;;;;5035718;28;20026;-73
2022/10/26 13:10:28;;;;;;;2.20;1.97;;;;;;;;;;5035736;28;20070;-73
2022/10/26 13:12:55;;;;;;;3.72;1.83;;;;;;;;;;5017872;28;20097;-74
2022/10/26 13:15:26;;;;;;;3.75;1.85;;;;;;;;;;5050856;28;20491;-75
2022/10/26 13:17:53;;;;;;;2.88;1.65;;;;;;;;;;5035467;28;20088;-73
2022/10/26 13:20:18;;;;;;;2.28;1.50;;;;;;;;;;5035465;28;20013;-73
2022/10/26 13:22:45;;;;;;;2.65;1.58;;;;;;;;;;5017603;28;20040;-72
2022/10/26 13:25:22;;;;;;;1.30;1.20;;;;;;;;;;5035394;28;20048;-73
2022/10/26 13:28:08;;;;;;;1.92;1.25;;;;;;;;;;5035335;28;20037;-73
2022/10/26 13:30:44;;;;;;;2.38;1.40;;;;;;;;;;5020469;28;20314;-73
2022/10/26 13:33:16;;;;;;;2.70;1.30;;;;;;;;;;5016376;28;20414;-73
2022/10/26 13:35:42;;;;;;;2.95;1.52;;;;;;;;;;5034088;28;20087;-72
2022/10/26 13:38:09;;;;;;;1.73;1.60;;;;;;;;;;5033979;28;20025;-73
2022/10/26 13:40:36;;;;;;;2.67;1.70;;;;;;;;;;5033918;28;20056;-73
2022/10/26 13:43:02;;;;;;;2.88;1.55;;;;;;;;;;5033953;28;20491;-71
2022/10/26 13:45:32;;;;;;;1.48;1.38;;;;;;;;;;5033869;28;20088;-71
2022/10/26 13:47:58;;;;;;;2.10;1.42;;;;;;;;;;5033655;28;20057;-74
2022/10/26 13:50:26;;;;;;;3.05;1.48;;;;;;;;;;5033736;28;20036;-72
2022/10/26 13:53:00;;;;;;;4.03;1.90;;;;;;;;;;5015719;28;20033;-73
2022/10/26 13:55:27;;;;;;;3.88;1.83;;;;;;;;;;5033594;28;20113;-74
2022/10/26 13:58:05;;;;;;;2.17;1.90;;;;;;;;;;5015968;28;20508;-73
2022/10/26 14:00:30;;;;;;;1.67;1.52;;;;;;;;;;5033559;28;20026;-73
2022/10/26 14:02:55;;;;;;;3.28;1.63;;;;;;;;;;4999353;28;20016;-74
2022/10/26 14:05:21;;;;;;;2.00;1.80;;;;;;;;;;5033424;28;20029;-74
2022/10/26 14:07:56;;;;;;;3.85;2.40;;;;;;;;;;5033436;28;20104;-74
2022/10/26 14:10:29;;;;;;;3.75;2.58;;;;;;;;;;5033388;28;20164;-73
2022/10/26 14:12:54;;;;;;;7.43;2.35;;;;;;;;;;5048547;28;20087;-73
2022/10/26 14:15:24;;;;;;;3.13;2.40;;;;;;;;;;5033209;28;20096;-74
2022/10/26 14:17:51;;;;;;;3.88;2.20;;;;;;;;;;5032904;28;20030;-73
2022/10/26 14:20:21;;;;;;;2.67;2.20;;;;;;;;;;5033119;28;20013;-73
2022/10/26 14:22:46;;;;;;;;;;;;;;;;;;5033651;28;20106;-72
2022/10/26 14:25:23;;;;;;;3.08;2.05;;;;;;;;;;5033078;28;19948;-73
2022/10/26 14:27:49;;;;;;;3.03;2.40;;;;;;;;;;5033101;28;20086;-74
2022/10/26 14:30:22;;;;;;;3.72;2.65;;;;;;;;;;5033016;28;20029;-74
2022/10/26 14:32:48;;;;;;;3.13;2.80;;;;;;;;;;5032905;28;20065;-73
2022/10/26 14:35:13;;;;;;;4.72;2.90;;;;;;;;;;5033842;28;20127;-73
2022/10/26 14:37:48;;;;;;;7.85;3.25;;;;;;;;;;5033075;28;20029;-73